sensor_id;sensor_type;location;lat;lon;timestamp;pressure;altitude;pressure_sealevel;temperature;humidity
30073;BME280;16897;52.422;13.678;2023-05-09T00:01:41;102084.50;;;12.29;37.62
30073;BME280;16897;52.422;13.678;2023-05-09T00:05:44;102090.72;;;12.26;37.72
30073;BME280;16897;52.422;13.678;2023-05-09T00:09:46;102100.69;;;12.38;37.60
30073;BME280;16897;52.422;13.678;2023-05-09T00:13:48;102045.41;;;12.02;37.73
30073;BME280;16897;52.422;13.678;2023-05-09T00:17:51;102101.78;;;12.33;37.87
30073;BME280;16897;52.422;13.678;2023-05-09T00:21:53;102043.94;;;11.95;37.80
30073;BME280;16897;52.422;13.678;2023-05-09T00:25:55;102101.41;;;12.20;37.73
30073;BME280;16897;52.422;13.678;2023-05-09T00:29:56;102100.81;;;12.13;37.88
30073;BME280;16897;52.422;13.678;2023-05-09T00:33:58;102075.34;;;11.95;37.88
30073;BME280;16897;52.422;13.678;2023-05-09T00:38:00;102054.50;;;11.70;37.97
30073;BME280;16897;52.422;13.678;2023-05-09T00:42:01;102105.94;;;11.94;37.94
30073;BME280;16897;52.422;13.678;2023-05-09T00:46:04;102053.81;;;11.65;38.11
30073;BME280;16897;52.422;13.678;2023-05-09T00:50:06;102064.97;;;11.70;38.00
30073;BME280;16897;52.422;13.678;2023-05-09T00:54:08;102088.44;;;11.71;38.25
30073;BME280;16897;52.422;13.678;2023-05-09T00:58:10;102070.88;;;11.51;38.32
30073;BME280;16897;52.422;13.678;2023-05-09T01:02:11;102073.50;;;11.51;38.24
30073;BME280;16897;52.422;13.678;2023-05-09T01:10:54;102065.91;;;11.45;38.42
30073;BME280;16897;52.422;13.678;2023-05-09T01:15:10;102076.13;;;11.51;38.56
30073;BME280;16897;52.422;13.678;2023-05-09T01:19:26;102067.41;;;11.51;38.36
30073;BME280;16897;52.422;13.678;2023-05-09T01:23:48;102065.63;;;11.53;38.49
30073;BME280;16897;52.422;13.678;2023-05-09T01:32:26;102047.22;;;11.55;38.60
30073;BME280;16897;52.422;13.678;2023-05-09T01:36:29;102048.88;;;11.57;38.57
30073;BME280;16897;52.422;13.678;2023-05-09T01:40:33;102052.34;;;11.58;38.64
30073;BME280;16897;52.422;13.678;2023-05-09T01:44:38;102030.59;;;11.56;38.68
30073;BME280;16897;52.422;13.678;2023-05-09T01:48:39;102007.47;;;11.45;38.84
30073;BME280;16897;52.422;13.678;2023-05-09T01:52:42;102051.94;;;11.68;38.85
30073;BME280;16897;52.422;13.678;2023-05-09T01:56:48;102050.84;;;11.74;38.93
30073;BME280;16897;52.422;13.678;2023-05-09T02:00:49;102041.13;;;11.78;38.88
30073;BME280;16897;52.422;13.678;2023-05-09T02:04:53;102038.44;;;11.79;38.72
30073;BME280;16897;52.422;13.678;2023-05-09T02:08:56;102029.91;;;11.74;38.87
30073;BME280;16897;52.422;13.678;2023-05-09T02:13:00;102034.78;;;11.83;38.94
30073;BME280;16897;52.422;13.678;2023-05-09T02:17:02;102033.19;;;11.79;38.81
30073;BME280;16897;52.422;13.678;2023-05-09T02:21:06;102016.63;;;11.79;38.85
30073;BME280;16897;52.422;13.678;2023-05-09T02:25:10;102021.16;;;11.75;38.77
30073;BME280;16897;52.422;13.678;2023-05-09T02:29:14;102024.38;;;11.82;38.85
30073;BME280;16897;52.422;13.678;2023-05-09T02:33:18;102031.38;;;11.81;38.89
30073;BME280;16897;52.422;13.678;2023-05-09T02:37:20;102034.78;;;11.83;38.93
30073;BME280;16897;52.422;13.678;2023-05-09T02:41:22;102038.00;;;11.91;38.99
30073;BME280;16897;52.422;13.678;2023-05-09T02:45:28;102040.66;;;11.90;38.91
30073;BME280;16897;52.422;13.678;2023-05-09T02:49:30;102020.84;;;11.83;39.05
30073;BME280;16897;52.422;13.678;2023-05-09T02:53:32;102042.47;;;11.88;38.96
30073;BME280;16897;52.422;13.678;2023-05-09T02:57:33;102037.31;;;11.86;39.01
30073;BME280;16897;52.422;13.678;2023-05-09T03:01:35;102037.53;;;11.80;38.94
30073;BME280;16897;52.422;13.678;2023-05-09T03:05:38;102038.44;;;11.79;39.05
30073;BME280;16897;52.422;13.678;2023-05-09T03:09:39;102010.25;;;11.64;38.99
30073;BME280;16897;52.422;13.678;2023-05-09T03:13:41;102036.84;;;11.75;39.02
30073;BME280;16897;52.422;13.678;2023-05-09T03:17:43;102031.19;;;11.64;38.86
30073;BME280;16897;52.422;13.678;2023-05-09T03:21:45;102030.38;;;11.62;39.02
30073;BME280;16897;52.422;13.678;2023-05-09T03:25:47;102020.22;;;11.54;38.94
30073;BME280;16897;52.422;13.678;2023-05-09T03:29:50;102043.59;;;11.59;39.04
30073;BME280;16897;52.422;13.678;2023-05-09T03:33:53;102029.94;;;11.50;39.08
30073;BME280;16897;52.422;13.678;2023-05-09T03:37:56;102029.19;;;11.47;39.06
30073;BME280;16897;52.422;13.678;2023-05-09T03:41:57;102009.88;;;11.27;38.98
30073;BME280;16897;52.422;13.678;2023-05-09T03:45:59;102023.88;;;11.26;39.15
30073;BME280;16897;52.422;13.678;2023-05-09T03:50:01;102025.84;;;11.20;39.02
30073;BME280;16897;52.422;13.678;2023-05-09T03:54:04;102025.16;;;11.15;39.13
30073;BME280;16897;52.422;13.678;2023-05-09T03:58:06;102033.94;;;11.14;39.14
30073;BME280;16897;52.422;13.678;2023-05-09T04:02:12;102033.13;;;11.12;39.15
30073;BME280;16897;52.422;13.678;2023-05-09T04:06:14;102024.78;;;11.02;39.12
30073;BME280;16897;52.422;13.678;2023-05-09T04:10:18;102020.41;;;11.02;39.16
30073;BME280;16897;52.422;13.678;2023-05-09T04:14:20;102019.59;;;11.00;39.24
30073;BME280;16897;52.422;13.678;2023-05-09T04:18:22;102024.66;;;11.05;39.17
30073;BME280;16897;52.422;13.678;2023-05-09T04:22:23;102034.03;;;11.11;39.07
30073;BME280;16897;52.422;13.678;2023-05-09T04:26:25;102035.75;;;11.12;39.12
30073;BME280;16897;52.422;13.678;2023-05-09T04:30:30;102017.81;;;11.01;39.24
30073;BME280;16897;52.422;13.678;2023-05-09T04:34:33;102005.78;;;10.97;39.23
30073;BME280;16897;52.422;13.678;2023-05-09T04:38:41;102035.84;;;11.08;39.34
30073;BME280;16897;52.422;13.678;2023-05-09T04:42:46;102029.63;;;11.13;39.40
30073;BME280;16897;52.422;13.678;2023-05-09T04:46:48;102032.97;;;11.16;39.54
30073;BME280;16897;52.422;13.678;2023-05-09T04:50:51;102018.81;;;11.22;39.57
30073;BME280;16897;52.422;13.678;2023-05-09T04:54:53;102017.78;;;11.26;39.54
30073;BME280;16897;52.422;13.678;2023-05-09T04:58:56;102012.34;;;11.32;39.46
30073;BME280;16897;52.422;13.678;2023-05-09T05:02:58;102014.59;;;11.41;39.40
30073;BME280;16897;52.422;13.678;2023-05-09T05:07:01;101964.03;;;11.19;39.46
30073;BME280;16897;52.422;13.678;2023-05-09T05:11:04;101996.84;;;11.49;39.71
30073;BME280;16897;52.422;13.678;2023-05-09T05:15:06;101967.69;;;11.37;39.53
30073;BME280;16897;52.422;13.678;2023-05-09T05:19:07;102009.94;;;11.71;39.56
30073;BME280;16897;52.422;13.678;2023-05-09T05:23:13;101975.19;;;11.68;39.75
30073;BME280;16897;52.422;13.678;2023-05-09T05:27:14;102002.22;;;11.90;39.57
30073;BME280;16897;52.422;13.678;2023-05-09T05:31:16;101992.56;;;11.92;39.78
30073;BME280;16897;52.422;13.678;2023-05-09T05:35:18;101990.22;;;12.07;39.71
30073;BME280;16897;52.422;13.678;2023-05-09T05:39:24;101989.47;;;12.25;39.64
30073;BME280;16897;52.422;13.678;2023-05-09T05:43:29;101978.75;;;12.31;39.80
30073;BME280;16897;52.422;13.678;2023-05-09T05:47:35;101983.13;;;12.51;39.81
30073;BME280;16897;52.422;13.678;2023-05-09T05:51:37;101980.88;;;12.62;39.86
30073;BME280;16897;52.422;13.678;2023-05-09T05:55:40;101979.16;;;12.82;39.93
30073;BME280;16897;52.422;13.678;2023-05-09T05:59:42;101980.13;;;13.00;39.84
30073;BME280;16897;52.422;13.678;2023-05-09T06:03:44;101985.22;;;13.22;39.88
30073;BME280;16897;52.422;13.678;2023-05-09T06:07:46;101982.97;;;13.33;39.87
30073;BME280;16897;52.422;13.678;2023-05-09T06:11:48;101977.22;;;13.44;39.84
30073;BME280;16897;52.422;13.678;2023-05-09T06:15:49;101948.31;;;13.45;39.94
30073;BME280;16897;52.422;13.678;2023-05-09T06:19:51;101935.19;;;13.45;39.74
30073;BME280;16897;52.422;13.678;2023-05-09T06:23:53;101950.59;;;13.70;39.79
30073;BME280;16897;52.422;13.678;2023-05-09T06:27:54;101938.09;;;13.76;39.81
30073;BME280;16897;52.422;13.678;2023-05-09T06:31:56;101956.03;;;14.02;39.79
30073;BME280;16897;52.422;13.678;2023-05-09T06:35:58;101953.03;;;14.10;39.68
30073;BME280;16897;52.422;13.678;2023-05-09T06:40:00;101941.22;;;14.19;39.62
30073;BME280;16897;52.422;13.678;2023-05-09T06:44:02;101926.97;;;14.23;39.67
30073;BME280;16897;52.422;13.678;2023-05-09T06:48:04;101932.47;;;14.35;39.79
30073;BME280;16897;52.422;13.678;2023-05-09T06:52:06;101914.84;;;14.37;39.71
30073;BME280;16897;52.422;13.678;2023-05-09T06:56:07;101916.97;;;14.47;39.70
30073;BME280;16897;52.422;13.678;2023-05-09T07:00:09;101922.47;;;14.59;39.58
30073;BME280;16897;52.422;13.678;2023-05-09T07:04:11;101893.25;;;14.48;39.69
30073;BME280;16897;52.422;13.678;2023-05-09T07:08:13;101912.84;;;14.76;39.70
30073;BME280;16897;52.422;13.678;2023-05-09T07:12:14;101885.34;;;14.66;39.69
30073;BME280;16897;52.422;13.678;2023-05-09T07:16:16;101887.50;;;14.91;39.57
30073;BME280;16897;52.422;13.678;2023-05-09T07:20:18;101875.97;;;14.93;39.54
30073;BME280;16897;52.422;13.678;2023-05-09T07:24:20;101874.00;;;15.13;39.61
30073;BME280;16897;52.422;13.678;2023-05-09T07:28:21;101875.69;;;15.30;39.42
30073;BME280;16897;52.422;13.678;2023-05-09T07:32:23;101865.50;;;15.39;39.44
30073;BME280;16897;52.422;13.678;2023-05-09T07:36:24;101853.72;;;15.61;39.41
30073;BME280;16897;52.422;13.678;2023-05-09T07:40:26;101862.25;;;15.80;39.42
30073;BME280;16897;52.422;13.678;2023-05-09T07:44:28;101851.66;;;15.96;39.10
30073;BME280;16897;52.422;13.678;2023-05-09T07:48:29;101845.44;;;16.11;39.18
30073;BME280;16897;52.422;13.678;2023-05-09T07:52:31;101822.88;;;16.22;39.20
30073;BME280;16897;52.422;13.678;2023-05-09T07:56:32;101831.06;;;16.46;39.16
30073;BME280;16897;52.422;13.678;2023-05-09T08:00:34;101829.72;;;16.67;38.96
30073;BME280;16897;52.422;13.678;2023-05-09T08:04:37;101799.47;;;16.73;39.04
30073;BME280;16897;52.422;13.678;2023-05-09T08:08:39;101801.78;;;16.92;39.17
30073;BME280;16897;52.422;13.678;2023-05-09T08:12:40;101820.56;;;17.14;38.81
30073;BME280;16897;52.422;13.678;2023-05-09T08:16:42;101777.25;;;17.04;38.56
30073;BME280;16897;52.422;13.678;2023-05-09T08:20:43;101792.63;;;17.24;38.69
30073;BME280;16897;52.422;13.678;2023-05-09T08:24:45;101796.13;;;17.38;38.60
30073;BME280;16897;52.422;13.678;2023-05-09T08:28:47;101792.94;;;17.33;38.30
30073;BME280;16897;52.422;13.678;2023-05-09T08:32:50;101772.16;;;17.41;38.23
30073;BME280;16897;52.422;13.678;2023-05-09T08:36:51;101775.78;;;17.53;38.35
30073;BME280;16897;52.422;13.678;2023-05-09T08:41:00;101770.50;;;17.65;38.23
30073;BME280;16897;52.422;13.678;2023-05-09T08:45:08;101779.84;;;17.84;38.28
30073;BME280;16897;52.422;13.678;2023-05-09T08:49:10;101749.84;;;17.85;38.21
30073;BME280;16897;52.422;13.678;2023-05-09T08:53:12;101775.06;;;18.02;38.13
30073;BME280;16897;52.422;13.678;2023-05-09T08:57:14;101761.53;;;18.06;38.10
30073;BME280;16897;52.422;13.678;2023-05-09T09:01:16;101744.91;;;18.17;38.08
30073;BME280;16897;52.422;13.678;2023-05-09T09:05:18;101752.59;;;18.33;37.94
30073;BME280;16897;52.422;13.678;2023-05-09T09:09:20;101728.13;;;18.42;37.92
30073;BME280;16897;52.422;13.678;2023-05-09T09:13:23;101739.16;;;18.60;37.79
30073;BME280;16897;52.422;13.678;2023-05-09T09:17:25;101742.00;;;18.70;37.88
30073;BME280;16897;52.422;13.678;2023-05-09T09:21:29;101740.16;;;18.83;37.62
30073;BME280;16897;52.422;13.678;2023-05-09T09:25:32;101717.97;;;18.97;37.79
30073;BME280;16897;52.422;13.678;2023-05-09T09:29:33;101726.19;;;19.05;37.65
30073;BME280;16897;52.422;13.678;2023-05-09T09:33:35;101702.31;;;18.94;37.55
30073;BME280;16897;52.422;13.678;2023-05-09T09:37:38;101717.91;;;19.10;37.18
30073;BME280;16897;52.422;13.678;2023-05-09T09:41:46;101733.84;;;19.32;37.35
30073;BME280;16897;52.422;13.678;2023-05-09T09:45:48;101741.06;;;19.41;37.37
30073;BME280;16897;52.422;13.678;2023-05-09T09:49:53;101722.69;;;19.51;37.25
30073;BME280;16897;52.422;13.678;2023-05-09T09:53:54;101720.28;;;19.59;37.27
30073;BME280;16897;52.422;13.678;2023-05-09T09:57:56;101704.03;;;19.64;36.86
30073;BME280;16897;52.422;13.678;2023-05-09T10:02:05;101711.03;;;19.76;36.73
30073;BME280;16897;52.422;13.678;2023-05-09T10:06:11;101691.16;;;19.82;36.90
30073;BME280;16897;52.422;13.678;2023-05-09T10:10:12;101685.75;;;19.83;36.58
30073;BME280;16897;52.422;13.678;2023-05-09T10:14:14;101681.66;;;19.91;36.48
30073;BME280;16897;52.422;13.678;2023-05-09T10:18:16;101687.66;;;20.04;36.52
30073;BME280;16897;52.422;13.678;2023-05-09T10:22:20;101683.06;;;20.17;36.49
30073;BME280;16897;52.422;13.678;2023-05-09T10:26:23;101662.44;;;20.21;36.33
30073;BME280;16897;52.422;13.678;2023-05-09T10:30:31;101647.19;;;20.34;36.27
30073;BME280;16897;52.422;13.678;2023-05-09T10:34:36;101645.91;;;20.49;36.13
30073;BME280;16897;52.422;13.678;2023-05-09T10:38:40;101647.16;;;20.57;36.53
30073;BME280;16897;52.422;13.678;2023-05-09T10:42:42;101652.66;;;20.65;35.87
30073;BME280;16897;52.422;13.678;2023-05-09T10:46:44;101630.97;;;20.60;35.74
30073;BME280;16897;52.422;13.678;2023-05-09T10:50:46;101625.38;;;20.63;35.88
30073;BME280;16897;52.422;13.678;2023-05-09T10:54:58;101630.25;;;20.78;35.89
30073;BME280;16897;52.422;13.678;2023-05-09T10:59:01;101641.06;;;20.87;35.67
30073;BME280;16897;52.422;13.678;2023-05-09T11:03:06;101634.03;;;20.97;35.62
30073;BME280;16897;52.422;13.678;2023-05-09T11:07:26;101588.97;;;20.86;35.97
30073;BME280;16897;52.422;13.678;2023-05-09T11:11:28;101595.88;;;20.98;35.37
30073;BME280;16897;52.422;13.678;2023-05-09T11:15:29;101604.63;;;21.10;35.59
30073;BME280;16897;52.422;13.678;2023-05-09T11:19:59;101609.19;;;21.29;35.18
30073;BME280;16897;52.422;13.678;2023-05-09T11:24:15;101596.81;;;21.39;35.43
30073;BME280;16897;52.422;13.678;2023-05-09T11:28:27;101572.91;;;21.39;34.84
30073;BME280;16897;52.422;13.678;2023-05-09T11:32:34;101593.72;;;21.43;35.15
30073;BME280;16897;52.422;13.678;2023-05-09T11:36:47;101571.09;;;21.39;34.89
30073;BME280;16897;52.422;13.678;2023-05-09T11:40:49;101568.72;;;21.46;34.74
30073;BME280;16897;52.422;13.678;2023-05-09T11:44:52;101541.00;;;21.39;34.70
30073;BME280;16897;52.422;13.678;2023-05-09T11:48:53;101550.38;;;21.43;34.62
30073;BME280;16897;52.422;13.678;2023-05-09T11:52:55;101519.00;;;21.37;34.69
30073;BME280;16897;52.422;13.678;2023-05-09T11:56:57;101533.63;;;21.52;34.20
30073;BME280;16897;52.422;13.678;2023-05-09T12:01:00;101532.81;;;21.61;34.46
30073;BME280;16897;52.422;13.678;2023-05-09T12:05:09;101514.91;;;21.63;34.20
30073;BME280;16897;52.422;13.678;2023-05-09T12:09:11;101516.19;;;21.69;34.28
30073;BME280;16897;52.422;13.678;2023-05-09T12:13:14;101516.44;;;21.76;34.25
30073;BME280;16897;52.422;13.678;2023-05-09T12:17:15;101510.16;;;21.86;34.16
30073;BME280;16897;52.422;13.678;2023-05-09T12:21:18;101493.25;;;21.87;34.13
30073;BME280;16897;52.422;13.678;2023-05-09T12:25:21;101468.47;;;21.77;33.93
30073;BME280;16897;52.422;13.678;2023-05-09T12:29:23;101495.31;;;22.03;33.71
30073;BME280;16897;52.422;13.678;2023-05-09T12:33:25;101492.13;;;22.00;33.36
30073;BME280;16897;52.422;13.678;2023-05-09T12:37:29;101478.25;;;22.06;33.61
30073;BME280;16897;52.422;13.678;2023-05-09T12:41:33;101475.16;;;22.10;33.34
30073;BME280;16897;52.422;13.678;2023-05-09T12:45:34;101444.53;;;21.97;33.23
30073;BME280;16897;52.422;13.678;2023-05-09T12:49:35;101448.56;;;22.10;33.55
30073;BME280;16897;52.422;13.678;2023-05-09T12:53:39;101443.41;;;22.19;33.35
30073;BME280;16897;52.422;13.678;2023-05-09T12:57:41;101451.22;;;22.30;33.52
30073;BME280;16897;52.422;13.678;2023-05-09T13:01:43;101438.06;;;22.28;33.34
30073;BME280;16897;52.422;13.678;2023-05-09T13:05:56;101420.16;;;22.30;33.15
30073;BME280;16897;52.422;13.678;2023-05-09T13:09:58;101398.88;;;22.21;33.27
30073;BME280;16897;52.422;13.678;2023-05-09T13:14:01;101423.56;;;22.50;32.98
30073;BME280;16897;52.422;13.678;2023-05-09T13:18:04;101392.84;;;22.28;33.04
30073;BME280;16897;52.422;13.678;2023-05-09T13:22:06;101417.56;;;22.48;33.02
30073;BME280;16897;52.422;13.678;2023-05-09T13:26:08;101400.63;;;22.49;32.77
30073;BME280;16897;52.422;13.678;2023-05-09T13:30:10;101382.94;;;22.48;32.63
30073;BME280;16897;52.422;13.678;2023-05-09T13:34:11;101386.31;;;22.50;32.70
30073;BME280;16897;52.422;13.678;2023-05-09T13:38:13;101381.53;;;22.54;32.59
30073;BME280;16897;52.422;13.678;2023-05-09T13:42:14;101391.13;;;22.65;32.68
30073;BME280;16897;52.422;13.678;2023-05-09T13:46:16;101363.44;;;22.58;32.36
30073;BME280;16897;52.422;13.678;2023-05-09T13:50:18;101370.78;;;22.73;32.91
30073;BME280;16897;52.422;13.678;2023-05-09T13:54:19;101346.66;;;22.75;32.71
30073;BME280;16897;52.422;13.678;2023-05-09T13:58:23;101365.94;;;22.87;32.01
30073;BME280;16897;52.422;13.678;2023-05-09T14:02:24;101323.41;;;22.77;32.12
30073;BME280;16897;52.422;13.678;2023-05-09T14:06:27;101342.22;;;22.93;32.22
30073;BME280;16897;52.422;13.678;2023-05-09T14:10:29;101324.53;;;22.92;32.42
30073;BME280;16897;52.422;13.678;2023-05-09T14:14:31;101323.19;;;22.88;32.06
30073;BME280;16897;52.422;13.678;2023-05-09T14:18:33;101322.16;;;22.99;32.16
30073;BME280;16897;52.422;13.678;2023-05-09T14:22:35;101303.66;;;22.97;31.94
30073;BME280;16897;52.422;13.678;2023-05-09T14:26:37;101307.31;;;22.96;32.01
30073;BME280;16897;52.422;13.678;2023-05-09T14:30:38;101303.19;;;23.02;31.94
30073;BME280;16897;52.422;13.678;2023-05-09T14:34:40;101300.00;;;22.99;32.13
30073;BME280;16897;52.422;13.678;2023-05-09T14:38:42;101293.56;;;23.01;31.64
30073;BME280;16897;52.422;13.678;2023-05-09T14:42:44;101264.28;;;22.91;31.82
30073;BME280;16897;52.422;13.678;2023-05-09T14:46:46;101276.56;;;23.02;31.84
30073;BME280;16897;52.422;13.678;2023-05-09T14:50:48;101259.88;;;23.00;32.07
30073;BME280;16897;52.422;13.678;2023-05-09T14:54:50;101256.56;;;22.98;32.00
30073;BME280;16897;52.422;13.678;2023-05-09T14:58:51;101250.91;;;23.01;31.77
30073;BME280;16897;52.422;13.678;2023-05-09T15:02:53;101264.47;;;23.08;31.57
30073;BME280;16897;52.422;13.678;2023-05-09T15:06:55;101243.75;;;23.02;31.37
30073;BME280;16897;52.422;13.678;2023-05-09T15:10:56;101248.47;;;23.08;31.34
30073;BME280;16897;52.422;13.678;2023-05-09T15:15:15;101255.94;;;23.04;31.57
30073;BME280;16897;52.422;13.678;2023-05-09T15:19:17;101229.63;;;23.01;31.69
30073;BME280;16897;52.422;13.678;2023-05-09T15:23:19;101218.09;;;23.01;31.53
30073;BME280;16897;52.422;13.678;2023-05-09T15:27:20;101234.19;;;23.09;31.35
30073;BME280;16897;52.422;13.678;2023-05-09T15:31:21;101191.97;;;22.86;31.50
30073;BME280;16897;52.422;13.678;2023-05-09T15:35:24;101168.25;;;22.75;31.16
30073;BME280;16897;52.422;13.678;2023-05-09T15:39:25;101216.19;;;23.11;31.30
30073;BME280;16897;52.422;13.678;2023-05-09T15:43:27;101193.28;;;23.00;31.23
30073;BME280;16897;52.422;13.678;2023-05-09T15:47:28;101198.69;;;23.08;31.37
30073;BME280;16897;52.422;13.678;2023-05-09T15:51:30;101195.63;;;23.03;31.36
30073;BME280;16897;52.422;13.678;2023-05-09T15:55:31;101182.63;;;23.00;31.02
30073;BME280;16897;52.422;13.678;2023-05-09T15:59:33;101179.19;;;22.90;31.33
30073;BME280;16897;52.422;13.678;2023-05-09T16:03:34;101148.94;;;22.73;31.28
30073;BME280;16897;52.422;13.678;2023-05-09T16:07:35;101143.91;;;22.70;31.10
30073;BME280;16897;52.422;13.678;2023-05-09T16:11:37;101166.97;;;22.79;31.08
30073;BME280;16897;52.422;13.678;2023-05-09T16:15:39;101185.31;;;22.82;31.13
30073;BME280;16897;52.422;13.678;2023-05-09T16:19:40;101139.13;;;22.56;31.01
30073;BME280;16897;52.422;13.678;2023-05-09T16:23:42;101174.84;;;22.71;30.74
30073;BME280;16897;52.422;13.678;2023-05-09T16:27:43;101172.50;;;22.68;31.10
30073;BME280;16897;52.422;13.678;2023-05-09T16:31:45;101166.97;;;22.61;30.80
30073;BME280;16897;52.422;13.678;2023-05-09T16:35:46;101149.34;;;22.60;30.86
30073;BME280;16897;52.422;13.678;2023-05-09T16:39:47;101161.66;;;22.61;31.00
30073;BME280;16897;52.422;13.678;2023-05-09T16:43:49;101164.13;;;22.63;30.96
30073;BME280;16897;52.422;13.678;2023-05-09T16:47:51;101150.09;;;22.52;30.86
30073;BME280;16897;52.422;13.678;2023-05-09T16:51:55;101134.81;;;22.37;30.77
30073;BME280;16897;52.422;13.678;2023-05-09T16:55:56;101151.28;;;22.40;31.05
30073;BME280;16897;52.422;13.678;2023-05-09T16:59:58;101151.59;;;22.37;30.82
30073;BME280;16897;52.422;13.678;2023-05-09T17:03:59;101152.59;;;22.36;30.92
30073;BME280;16897;52.422;13.678;2023-05-09T17:08:01;101127.63;;;22.19;31.13
30073;BME280;16897;52.422;13.678;2023-05-09T17:12:03;101136.72;;;22.17;30.61
30073;BME280;16897;52.422;13.678;2023-05-09T17:16:05;101125.31;;;22.06;31.13
30073;BME280;16897;52.422;13.678;2023-05-09T17:20:07;101101.47;;;21.87;30.68
30073;BME280;16897;52.422;13.678;2023-05-09T17:24:11;101091.63;;;21.79;30.80
30073;BME280;16897;52.422;13.678;2023-05-09T17:28:14;101130.00;;;21.95;30.86
30073;BME280;16897;52.422;13.678;2023-05-09T17:32:15;101131.97;;;21.93;30.74
30073;BME280;16897;52.422;13.678;2023-05-09T17:36:17;101079.25;;;21.60;31.16
30073;BME280;16897;52.422;13.678;2023-05-09T17:40:18;101075.66;;;21.52;31.08
30073;BME280;16897;52.422;13.678;2023-05-09T17:44:20;101065.91;;;21.33;31.22
30073;BME280;16897;52.422;13.678;2023-05-09T17:48:21;101124.56;;;21.69;31.25
30073;BME280;16897;52.422;13.678;2023-05-09T17:52:23;101113.25;;;21.57;30.80
30073;BME280;16897;52.422;13.678;2023-05-09T17:56:24;101118.03;;;21.53;30.96
30073;BME280;16897;52.422;13.678;2023-05-09T18:00:26;101120.16;;;21.50;31.15
30073;BME280;16897;52.422;13.678;2023-05-09T18:04:27;101104.81;;;21.34;31.09
30073;BME280;16897;52.422;13.678;2023-05-09T18:08:31;101114.03;;;21.39;31.33
30073;BME280;16897;52.422;13.678;2023-05-09T18:12:33;101109.00;;;21.27;31.03
30073;BME280;16897;52.422;13.678;2023-05-09T18:16:36;101086.53;;;21.11;31.00
30073;BME280;16897;52.422;13.678;2023-05-09T18:20:37;101078.91;;;20.98;30.94
30073;BME280;16897;52.422;13.678;2023-05-09T18:24:38;101056.56;;;20.82;31.52
30073;BME280;16897;52.422;13.678;2023-05-09T18:28:40;101092.91;;;20.91;31.40
30073;BME280;16897;52.422;13.678;2023-05-09T18:32:41;101068.06;;;20.72;31.06
30073;BME280;16897;52.422;13.678;2023-05-09T18:36:42;101090.94;;;20.73;31.06
30073;BME280;16897;52.422;13.678;2023-05-09T18:40:44;101088.75;;;20.69;31.58
30073;BME280;16897;52.422;13.678;2023-05-09T18:44:45;101091.81;;;20.64;31.05
30073;BME280;16897;52.422;13.678;2023-05-09T18:48:49;101093.06;;;20.60;31.39
30073;BME280;16897;52.422;13.678;2023-05-09T18:52:50;101099.91;;;20.53;31.46
30073;BME280;16897;52.422;13.678;2023-05-09T18:56:52;101079.50;;;20.34;31.24
30073;BME280;16897;52.422;13.678;2023-05-09T19:00:54;101112.88;;;20.46;31.10
30073;BME280;16897;52.422;13.678;2023-05-09T19:04:55;101103.94;;;20.38;31.60
30073;BME280;16897;52.422;13.678;2023-05-09T19:08:57;101077.25;;;20.10;31.14
30073;BME280;16897;52.422;13.678;2023-05-09T19:12:58;101097.63;;;20.19;31.19
30073;BME280;16897;52.422;13.678;2023-05-09T19:17:00;101054.63;;;19.86;31.63
30073;BME280;16897;52.422;13.678;2023-05-09T19:21:01;101101.84;;;20.12;31.65
30073;BME280;16897;52.422;13.678;2023-05-09T19:25:03;101094.97;;;20.00;31.48
30073;BME280;16897;52.422;13.678;2023-05-09T19:29:04;101092.72;;;19.95;31.43
30073;BME280;16897;52.422;13.678;2023-05-09T19:33:08;101090.50;;;19.91;31.38
30073;BME280;16897;52.422;13.678;2023-05-09T19:37:09;101080.25;;;19.76;31.34
30073;BME280;16897;52.422;13.678;2023-05-09T19:41:10;101051.44;;;19.52;31.58
30073;BME280;16897;52.422;13.678;2023-05-09T19:45:13;101045.97;;;19.44;31.52
30073;BME280;16897;52.422;13.678;2023-05-09T19:49:15;101061.72;;;19.45;31.71
30073;BME280;16897;52.422;13.678;2023-05-09T19:53:16;101072.72;;;19.41;31.69
30073;BME280;16897;52.422;13.678;2023-05-09T19:57:18;101061.41;;;19.29;31.68
30073;BME280;16897;52.422;13.678;2023-05-09T20:01:21;101071.72;;;19.32;31.32
30073;BME280;16897;52.422;13.678;2023-05-09T20:05:22;101066.25;;;19.24;31.50
30073;BME280;16897;52.422;13.678;2023-05-09T20:09:23;101010.97;;;18.79;31.71
30073;BME280;16897;52.422;13.678;2023-05-09T20:13:25;101053.75;;;19.05;31.65
30073;BME280;16897;52.422;13.678;2023-05-09T20:17:26;101050.09;;;18.96;31.60
30073;BME280;16897;52.422;13.678;2023-05-09T20:21:28;101047.13;;;18.90;31.59
30073;BME280;16897;52.422;13.678;2023-05-09T20:25:29;101056.75;;;18.91;31.82
30073;BME280;16897;52.422;13.678;2023-05-09T20:29:32;101051.13;;;18.84;31.87
30073;BME280;16897;52.422;13.678;2023-05-09T20:33:33;101038.69;;;18.75;31.94
30073;BME280;16897;52.422;13.678;2023-05-09T20:37:35;101047.19;;;18.78;31.53
30073;BME280;16897;52.422;13.678;2023-05-09T20:41:37;101015.00;;;18.52;31.69
30073;BME280;16897;52.422;13.678;2023-05-09T20:45:38;101019.09;;;18.45;31.78
30073;BME280;16897;52.422;13.678;2023-05-09T20:49:40;101037.25;;;18.50;31.99
30073;BME280;16897;52.422;13.678;2023-05-09T20:53:42;100993.63;;;18.23;31.77
30073;BME280;16897;52.422;13.678;2023-05-09T20:57:43;101035.91;;;18.44;31.75
30073;BME280;16897;52.422;13.678;2023-05-09T21:01:45;101025.03;;;18.38;32.09